Time;durP1;ratioP1;P1;durP2;ratioP2;P2;SDS_P1;SDS_P2;PMS_P1;PMS_P2;Temp;Humidity;BMP_temperature;BMP_pressure;BME280_temperature;BME280_humidity;BME280_pressure;Samples;Min_cycle;Max_cycle;Signal;HPM_P1;HPM_P2
2022/06/16 00:01:45;;;;;;;6.72;5.45;;;;;;;;;;5038362;28;20044;-76
2022/06/16 00:04:11;;;;;;;6.68;5.57;;;;;;;;;;5038877;28;20022;-76
2022/06/16 00:06:37;;;;;;;9.00;6.32;;;;;;;;;;5024781;28;20050;-76
2022/06/16 00:09:04;;;;;;;7.45;5.47;;;;;;;;;;5013637;28;20057;-76
2022/06/16 00:11:30;;;;;;;6.90;5.82;;;;;;;;;;5038482;28;20086;-76
2022/06/16 00:13:56;;;;;;;7.25;5.78;;;;;;;;;;5038752;28;20024;-76
2022/06/16 00:16:23;;;;;;;6.72;5.70;;;;;;;;;;5038616;28;20089;-75
2022/06/16 00:18:49;;;;;;;10.30;6.40;;;;;;;;;;5038527;28;20037;-76
2022/06/16 00:21:16;;;;;;;7.65;5.97;;;;;;;;;;5026246;28;20018;-76
2022/06/16 00:23:42;;;;;;;7.35;5.68;;;;;;;;;;5012894;28;20038;-76
2022/06/16 00:26:12;;;;;;;9.23;5.70;;;;;;;;;;5038579;28;20046;-76
2022/06/16 00:28:40;;;;;;;8.45;5.78;;;;;;;;;;5038313;28;20057;-76
2022/06/16 00:31:07;;;;;;;9.05;5.97;;;;;;;;;;5021624;28;20061;-77
2022/06/16 00:33:33;;;;;;;6.95;5.82;;;;;;;;;;5038512;28;20053;-76
2022/06/16 00:35:59;;;;;;;9.10;5.82;;;;;;;;;;5034185;28;20026;-76
2022/06/16 00:38:25;;;;;;;6.72;5.47;;;;;;;;;;5028929;28;20036;-76
2022/06/16 00:40:52;;;;;;;7.63;5.68;;;;;;;;;;5038214;28;20042;-76
2022/06/16 00:43:18;;;;;;;7.90;6.50;;;;;;;;;;5021532;28;20057;-77
2022/06/16 00:45:44;;;;;;;8.85;6.43;;;;;;;;;;5025444;23;20503;-71
2022/06/16 00:48:11;;;;;;;9.52;6.10;;;;;;;;;;5013062;28;20402;-74
2022/06/16 00:50:37;;;;;;;8.07;6.65;;;;;;;;;;5006492;28;20058;-74
2022/06/16 00:53:04;;;;;;;6.82;6.20;;;;;;;;;;5004082;28;20056;-73
2022/06/16 00:55:30;;;;;;;6.55;5.78;;;;;;;;;;5013134;28;20065;-73
2022/06/16 00:57:56;;;;;;;8.27;6.05;;;;;;;;;;4979971;28;20392;-73
2022/06/16 01:02:49;;;;;;;10.75;6.22;;;;;;;;;;5013640;28;20112;-73
2022/06/16 01:05:15;;;;;;;10.50;6.32;;;;;;;;;;5013348;28;20054;-73
2022/06/16 01:07:42;;;;;;;8.07;5.68;;;;;;;;;;5011889;28;20046;-73
2022/06/16 01:10:08;;;;;;;6.75;5.15;;;;;;;;;;5012469;28;20052;-73
2022/06/16 01:15:24;;;;;;;9.00;5.60;;;;;;;;;;4997789;28;20067;-75
2022/06/16 01:17:53;;;;;;;8.00;5.35;;;;;;;;;;4999528;28;20449;-73
2022/06/16 01:20:28;;;;;;;5.95;5.35;;;;;;;;;;4983023;28;20038;-73
2022/06/16 01:23:26;;;;;;;9.67;5.83;;;;;;;;;;4983598;28;20053;-74
2022/06/16 01:25:58;;;;;;;9.68;6.10;;;;;;;;;;4954224;28;20455;-73
2022/06/16 01:28:32;;;;;;;9.10;5.65;;;;;;;;;;5003575;28;20038;-73
2022/06/16 01:31:10;;;;;;;11.60;6.13;;;;;;;;;;5004301;28;20491;-74
2022/06/16 01:33:39;;;;;;;6.63;5.65;;;;;;;;;;4997200;28;20042;-73
2022/06/16 01:36:09;;;;;;;7.53;5.95;;;;;;;;;;4997892;28;20074;-74
2022/06/16 01:38:41;;;;;;;10.90;6.28;;;;;;;;;;5016513;28;20061;-73
2022/06/16 01:41:16;;;;;;;7.10;5.82;;;;;;;;;;5016826;28;20128;-73
2022/06/16 01:43:45;;;;;;;7.50;5.47;;;;;;;;;;5016829;28;20562;-74
2022/06/16 01:46:22;;;;;;;7.82;5.18;;;;;;;;;;4998614;28;20472;-74
2022/06/16 01:48:51;;;;;;;9.23;5.45;;;;;;;;;;5003853;28;20054;-73
2022/06/16 01:51:17;;;;;;;6.80;5.25;;;;;;;;;;5003408;28;20034;-73
2022/06/16 01:53:56;;;;;;;9.88;5.35;;;;;;;;;;4991875;28;20141;-73
2022/06/16 01:56:22;;;;;;;8.98;5.05;;;;;;;;;;4997151;28;20042;-73
2022/06/16 01:58:58;;;;;;;11.73;5.10;;;;;;;;;;4996730;28;20502;-73
2022/06/16 02:01:26;;;;;;;6.18;4.60;;;;;;;;;;4979768;28;20500;-73
2022/06/16 02:04:02;;;;;;;7.15;5.22;;;;;;;;;;5006126;28;20486;-74
2022/06/16 02:06:28;;;;;;;;;;;;;;;;;;5015170;28;20521;-73
2022/06/16 02:08:57;;;;;;;7.95;5.30;;;;;;;;;;4987210;28;19922;-74
2022/06/16 02:11:26;;;;;;;8.00;5.18;;;;;;;;;;4996484;28;20404;-73
2022/06/16 02:13:57;;;;;;;6.25;4.88;;;;;;;;;;4996342;28;20046;-73
2022/06/16 02:16:31;;;;;;;6.15;4.95;;;;;;;;;;4999100;28;20193;-73
2022/06/16 02:18:58;;;;;;;8.35;5.38;;;;;;;;;;4996580;28;20488;-73
2022/06/16 02:21:33;;;;;;;6.25;5.18;;;;;;;;;;4986792;28;20045;-73
2022/06/16 02:24:00;;;;;;;8.02;5.82;;;;;;;;;;4995926;28;20086;-74
2022/06/16 02:26:27;;;;;;;11.63;6.13;;;;;;;;;;4996007;28;20125;-74
2022/06/16 02:28:54;;;;;;;8.50;6.10;;;;;;;;;;4996353;28;20126;-73
2022/06/16 02:31:20;;;;;;;8.25;5.60;;;;;;;;;;4978823;28;20133;-73
2022/06/16 02:33:52;;;;;;;10.15;5.28;;;;;;;;;;4963263;28;20084;-74
2022/06/16 02:36:27;;;;;;;5.85;5.22;;;;;;;;;;4986507;28;20042;-74
2022/06/16 02:39:02;;;;;;;8.25;4.90;;;;;;;;;;5010930;28;20117;-73
2022/06/16 02:41:42;;;;;;;7.72;4.95;;;;;;;;;;5015936;28;20046;-73
2022/06/16 02:44:32;;;;;;;7.95;5.10;;;;;;;;;;4998201;28;20151;-73
2022/06/16 02:47:04;;;;;;;6.47;4.88;;;;;;;;;;5015378;28;20062;-73
2022/06/16 02:49:44;;;;;;;7.07;5.05;;;;;;;;;;4979955;28;20081;-74
2022/06/16 02:52:15;;;;;;;6.90;4.80;;;;;;;;;;5012350;28;20157;-73
2022/06/16 02:54:55;;;;;;;9.98;5.13;;;;;;;;;;5015519;28;20475;-73
2022/06/16 02:57:25;;;;;;;10.90;5.25;;;;;;;;;;4998044;28;20038;-73
2022/06/16 02:59:54;;;;;;;7.35;5.32;;;;;;;;;;5015869;28;20096;-73
2022/06/16 03:02:21;;;;;;;8.57;4.95;;;;;;;;;;5015121;28;20489;-74
2022/06/16 03:04:49;;;;;;;8.43;5.07;;;;;;;;;;5010325;28;20045;-73
2022/06/16 03:07:16;;;;;;;7.35;4.65;;;;;;;;;;4995603;28;20169;-74
2022/06/16 03:09:42;;;;;;;6.85;4.57;;;;;;;;;;4995313;28;20046;-73
2022/06/16 03:12:09;;;;;;;7.43;3.92;;;;;;;;;;4977869;28;20522;-74
2022/06/16 03:14:35;;;;;;;9.38;4.35;;;;;;;;;;4995792;28;20129;-74
2022/06/16 03:17:02;;;;;;;9.63;4.75;;;;;;;;;;4978131;28;20102;-71
2022/06/16 03:19:28;;;;;;;8.45;5.40;;;;;;;;;;4997060;28;20096;-72
2022/06/16 03:21:57;;;;;;;8.68;5.97;;;;;;;;;;4982306;28;20057;-72
2022/06/16 03:24:23;;;;;;;9.77;6.05;;;;;;;;;;4995324;28;20042;-72
2022/06/16 03:26:49;;;;;;;8.30;5.85;;;;;;;;;;4977959;28;20089;-72
2022/06/16 03:29:16;;;;;;;8.75;5.82;;;;;;;;;;4977881;28;20086;-72
2022/06/16 03:31:42;;;;;;;8.20;6.43;;;;;;;;;;4995259;28;20451;-72
2022/06/16 03:34:08;;;;;;;10.73;6.60;;;;;;;;;;4995252;28;20565;-72
2022/06/16 03:36:35;;;;;;;8.43;6.63;;;;;;;;;;4997253;28;20041;-71
2022/06/16 03:39:02;;;;;;;8.13;6.35;;;;;;;;;;5014545;28;20046;-72
2022/06/16 03:41:28;;;;;;;8.65;6.47;;;;;;;;;;5014184;28;20065;-73
2022/06/16 03:43:54;;;;;;;6.53;5.43;;;;;;;;;;5014011;28;20076;-72
2022/06/16 03:46:20;;;;;;;8.75;5.90;;;;;;;;;;4997116;28;20053;-72
2022/06/16 03:48:46;;;;;;;9.40;6.35;;;;;;;;;;5002728;28;20395;-72
2022/06/16 03:51:13;;;;;;;6.57;5.88;;;;;;;;;;4978057;28;20476;-73
2022/06/16 03:53:39;;;;;;;7.25;5.70;;;;;;;;;;4995178;28;20058;-73
2022/06/16 03:56:06;;;;;;;7.15;6.28;;;;;;;;;;4997330;28;20202;-73
2022/06/16 03:58:32;;;;;;;6.88;5.43;;;;;;;;;;5005851;28;20057;-72
2022/06/16 04:00:58;;;;;;;7.80;5.88;;;;;;;;;;5014631;28;20046;-72
2022/06/16 04:06:10;;;;;;;8.05;6.30;;;;;;;;;;4976472;28;20427;-73
2022/06/16 04:08:37;;;;;;;10.57;6.82;;;;;;;;;;5003316;28;20064;-72
2022/06/16 04:11:26;;;;;;;7.90;6.50;;;;;;;;;;5013871;28;20065;-74
2022/06/16 04:13:49;;;;;;;9.73;6.93;;;;;;;;;;5007917;28;20058;-73
2022/06/16 04:16:15;;;;;;;9.07;7.20;;;;;;;;;;5013854;28;20056;-72
2022/06/16 04:18:41;;;;;;;12.00;7.68;;;;;;;;;;4992896;28;20081;-74
2022/06/16 04:21:07;;;;;;;9.32;7.75;;;;;;;;;;4997246;28;20077;-73
2022/06/16 04:23:33;;;;;;;11.48;7.40;;;;;;;;;;5014191;28;20121;-73
2022/06/16 04:25:59;;;;;;;9.63;7.85;;;;;;;;;;5012009;28;20089;-73
2022/06/16 04:28:25;;;;;;;9.63;8.02;;;;;;;;;;4990031;28;20042;-74
2022/06/16 04:30:51;;;;;;;11.25;8.18;;;;;;;;;;4994521;28;20049;-74
2022/06/16 04:33:18;;;;;;;9.35;7.53;;;;;;;;;;4965753;28;20042;-74
2022/06/16 04:35:44;;;;;;;10.60;7.65;;;;;;;;;;4994255;28;20050;-74
2022/06/16 04:38:11;;;;;;;8.27;7.43;;;;;;;;;;4994322;28;20122;-74
2022/06/16 04:40:37;;;;;;;10.10;7.95;;;;;;;;;;4994131;28;20046;-73
2022/06/16 04:43:03;;;;;;;8.20;7.40;;;;;;;;;;4976813;28;20034;-73
2022/06/16 04:45:29;;;;;;;8.10;6.78;;;;;;;;;;4993774;28;20070;-74
2022/06/16 04:47:55;;;;;;;8.07;6.25;;;;;;;;;;4995661;28;20081;-73
2022/06/16 04:50:21;;;;;;;11.38;5.80;;;;;;;;;;5002128;28;20046;-74
2022/06/16 04:52:48;;;;;;;10.80;6.60;;;;;;;;;;5003375;28;20383;-74
2022/06/16 04:55:15;;;;;;;7.85;6.20;;;;;;;;;;5013241;28;20419;-74
2022/06/16 04:57:42;;;;;;;8.77;6.75;;;;;;;;;;5011814;28;20574;-74
2022/06/16 05:00:10;;;;;;;9.77;6.32;;;;;;;;;;5013692;28;20125;-74
2022/06/16 05:02:36;;;;;;;8.63;5.85;;;;;;;;;;5011224;28;20570;-74
2022/06/16 05:05:02;;;;;;;8.60;6.30;;;;;;;;;;5013346;28;20053;-73
2022/06/16 05:07:28;;;;;;;5.78;4.75;;;;;;;;;;5013253;28;20041;-74
2022/06/16 05:09:54;;;;;;;5.53;3.80;;;;;;;;;;5013327;28;20092;-74
2022/06/16 05:12:20;;;;;;;4.65;3.38;;;;;;;;;;4999869;28;20049;-74
2022/06/16 05:14:46;;;;;;;4.70;3.03;;;;;;;;;;4960206;28;20050;-74
2022/06/16 05:17:12;;;;;;;4.60;2.50;;;;;;;;;;4996499;28;20125;-73
2022/06/16 05:19:38;;;;;;;4.85;2.50;;;;;;;;;;4995060;28;20046;-74
2022/06/16 05:22:05;;;;;;;5.95;2.17;;;;;;;;;;4979526;28;20045;-74
2022/06/16 05:24:32;;;;;;;5.30;2.70;;;;;;;;;;5010332;28;20057;-74
2022/06/16 05:26:58;;;;;;;4.28;2.85;;;;;;;;;;5011594;28;20399;-73
2022/06/16 05:29:24;;;;;;;3.95;2.53;;;;;;;;;;5013363;28;20065;-75
2022/06/16 05:31:51;;;;;;;4.20;2.42;;;;;;;;;;4968145;28;20057;-73
2022/06/16 05:34:17;;;;;;;5.15;2.58;;;;;;;;;;4994632;28;20042;-73
2022/06/16 05:36:46;;;;;;;4.28;2.58;;;;;;;;;;5004047;28;20406;-73
2022/06/16 05:39:12;;;;;;;4.32;2.80;;;;;;;;;;5005689;28;20104;-73
2022/06/16 05:41:38;;;;;;;7.43;3.00;;;;;;;;;;5013278;28;20092;-74
2022/06/16 05:44:05;;;;;;;6.70;3.45;;;;;;;;;;4995129;28;20458;-75
2022/06/16 05:46:31;;;;;;;6.65;3.20;;;;;;;;;;4990237;28;20058;-73
2022/06/16 05:48:57;;;;;;;5.72;2.95;;;;;;;;;;4993497;28;20093;-73
2022/06/16 05:51:23;;;;;;;4.13;2.72;;;;;;;;;;4993380;28;20050;-73
2022/06/16 05:53:50;;;;;;;5.13;3.40;;;;;;;;;;4993993;28;20057;-73
2022/06/16 05:56:16;;;;;;;4.85;2.90;;;;;;;;;;4993433;28;20488;-74
2022/06/16 05:58:42;;;;;;;3.78;2.88;;;;;;;;;;4976522;28;20133;-73
2022/06/16 06:01:10;;;;;;;5.93;2.90;;;;;;;;;;5005737;28;20046;-74
2022/06/16 06:03:38;;;;;;;5.07;3.15;;;;;;;;;;4977869;28;20045;-74
2022/06/16 06:06:04;;;;;;;5.75;3.15;;;;;;;;;;5010452;28;20046;-73
2022/06/16 06:16:46;;;;;;;8.52;3.53;;;;;;;;;;5028152;28;20045;-74
2022/06/16 06:19:35;;;;;;;7.53;3.60;;;;;;;;;;5027576;28;20041;-73
2022/06/16 06:22:06;;;;;;;5.63;3.13;;;;;;;;;;5027869;28;20053;-74
2022/06/16 06:24:37;;;;;;;6.53;3.13;;;;;;;;;;4997320;28;20102;-74
2022/06/16 06:27:05;;;;;;;5.75;3.33;;;;;;;;;;5010371;28;20050;-75
2022/06/16 06:29:31;;;;;;;5.85;3.45;;;;;;;;;;5030291;28;20046;-74
2022/06/16 06:31:57;;;;;;;4.85;3.25;;;;;;;;;;5027609;28;20037;-74
2022/06/16 06:34:24;;;;;;;8.20;3.30;;;;;;;;;;5024685;28;20040;-73
2022/06/16 06:36:50;;;;;;;6.32;2.90;;;;;;;;;;4987038;28;20057;-76
2022/06/16 06:39:16;;;;;;;5.80;3.00;;;;;;;;;;5005859;28;20043;-75
2022/06/16 06:41:42;;;;;;;6.78;3.13;;;;;;;;;;4989930;28;20103;-76
2022/06/16 06:44:08;;;;;;;5.13;3.22;;;;;;;;;;4990184;28;20055;-76
2022/06/16 06:46:34;;;;;;;6.85;3.20;;;;;;;;;;5003971;28;20058;-76
2022/06/16 06:49:00;;;;;;;5.72;2.83;;;;;;;;;;5006899;28;20050;-75
2022/06/16 06:51:26;;;;;;;4.82;3.15;;;;;;;;;;5009355;28;20049;-75
2022/06/16 06:53:52;;;;;;;4.82;3.05;;;;;;;;;;4973941;28;20098;-75
2022/06/16 06:56:19;;;;;;;7.38;3.00;;;;;;;;;;5005580;28;20074;-76
2022/06/16 06:58:45;;;;;;;4.50;2.70;;;;;;;;;;4994631;28;20041;-75
2022/06/16 07:01:11;;;;;;;4.50;2.83;;;;;;;;;;4985109;28;20042;-76
2022/06/16 07:03:37;;;;;;;4.60;2.70;;;;;;;;;;5023097;28;20053;-75
2022/06/16 07:06:04;;;;;;;3.25;2.47;;;;;;;;;;4992555;28;20041;-76
2022/06/16 07:08:30;;;;;;;3.20;1.90;;;;;;;;;;5005479;28;20045;-76
2022/06/16 07:10:56;;;;;;;3.53;2.20;;;;;;;;;;5006238;28;20049;-75
2022/06/16 07:13:24;;;;;;;4.38;2.30;;;;;;;;;;5004975;28;20049;-76
2022/06/16 07:15:50;;;;;;;4.60;2.55;;;;;;;;;;4993951;28;20057;-76
2022/06/16 07:18:16;;;;;;;4.93;2.65;;;;;;;;;;4986325;28;20105;-75
2022/06/16 07:20:42;;;;;;;5.18;3.13;;;;;;;;;;4985123;28;20051;-76
2022/06/16 07:23:10;;;;;;;4.03;2.60;;;;;;;;;;5001816;28;20046;-75
2022/06/16 07:25:36;;;;;;;3.67;2.75;;;;;;;;;;4999106;28;20054;-77
2022/06/16 07:28:03;;;;;;;4.97;3.05;;;;;;;;;;4999332;28;20058;-74
2022/06/16 07:30:29;;;;;;;4.57;2.80;;;;;;;;;;5019549;28;20077;-74
2022/06/16 07:32:55;;;;;;;4.22;2.80;;;;;;;;;;4992341;28;20097;-84
2022/06/16 07:35:22;;;;;;;4.50;3.20;;;;;;;;;;5004112;28;20054;-79
2022/06/16 07:37:49;;;;;;;7.03;3.45;;;;;;;;;;5016109;28;20488;-75
2022/06/16 07:40:16;;;;;;;4.25;3.10;;;;;;;;;;5005289;28;20046;-78
2022/06/16 07:42:44;;;;;;;5.13;3.05;;;;;;;;;;5013033;28;20042;-76
2022/06/16 07:45:11;;;;;;;3.83;3.00;;;;;;;;;;5016780;28;20185;-75
2022/06/16 07:47:37;;;;;;;3.90;2.85;;;;;;;;;;4998485;28;20046;-78
2022/06/16 07:50:04;;;;;;;4.18;3.17;;;;;;;;;;5024708;28;20046;-77
2022/06/16 07:52:30;;;;;;;4.43;3.10;;;;;;;;;;4992254;28;20153;-76
2022/06/16 07:54:56;;;;;;;5.80;3.63;;;;;;;;;;4995500;28;20092;-76
2022/06/16 07:57:26;;;;;;;6.05;3.53;;;;;;;;;;4998373;28;20064;-75
2022/06/16 07:59:52;;;;;;;6.47;4.05;;;;;;;;;;5010598;28;20050;-76
2022/06/16 08:02:18;;;;;;;5.15;3.70;;;;;;;;;;5000525;28;20477;-76
2022/06/16 08:04:44;;;;;;;4.97;3.70;;;;;;;;;;5017049;28;20050;-76
2022/06/16 08:07:10;;;;;;;5.43;3.05;;;;;;;;;;5004151;28;20073;-76
2022/06/16 08:09:38;;;;;;;6.32;3.50;;;;;;;;;;5014775;28;20099;-76
2022/06/16 08:12:04;;;;;;;3.85;3.55;;;;;;;;;;4996519;28;20073;-76
2022/06/16 08:14:36;;;;;;;5.63;3.30;;;;;;;;;;5014876;28;20048;-75
2022/06/16 08:17:03;;;;;;;5.93;3.33;;;;;;;;;;4998453;28;20030;-77
2022/06/16 08:19:29;;;;;;;8.25;3.92;;;;;;;;;;5016270;28;20058;-76
2022/06/16 08:21:55;;;;;;;6.18;4.15;;;;;;;;;;5019226;28;20046;-76
2022/06/16 08:24:21;;;;;;;5.70;3.75;;;;;;;;;;5018492;28;20057;-76
2022/06/16 08:26:48;;;;;;;5.95;3.50;;;;;;;;;;5027915;28;20484;-77
2022/06/16 08:29:16;;;;;;;6.28;3.90;;;;;;;;;;5006833;28;20042;-75
2022/06/16 08:31:43;;;;;;;5.15;3.95;;;;;;;;;;5002891;28;20049;-76
2022/06/16 08:34:09;;;;;;;6.90;3.70;;;;;;;;;;5021008;28;20049;-76
2022/06/16 08:36:35;;;;;;;4.43;3.63;;;;;;;;;;4971061;28;20483;-75
2022/06/16 08:39:01;;;;;;;5.13;3.85;;;;;;;;;;4985504;28;20046;-75
2022/06/16 08:41:30;;;;;;;6.15;3.83;;;;;;;;;;5009110;28;20069;-75
2022/06/16 08:44:15;;;;;;;5.22;4.10;;;;;;;;;;5016727;28;20117;-75
2022/06/16 08:47:00;;;;;;;5.15;3.72;;;;;;;;;;5015664;28;20069;-76
2022/06/16 08:49:30;;;;;;;6.25;4.05;;;;;;;;;;5019747;28;20049;-76
2022/06/16 08:52:05;;;;;;;5.20;3.90;;;;;;;;;;4987077;28;20042;-76
2022/06/16 08:54:49;;;;;;;6.32;3.92;;;;;;;;;;4986475;28;20060;-76
2022/06/16 08:57:26;;;;;;;5.72;3.58;;;;;;;;;;5024407;28;20213;-76
2022/06/16 08:59:53;;;;;;;5.93;3.67;;;;;;;;;;4994536;28;20073;-75
2022/06/16 09:02:32;;;;;;;6.90;4.38;;;;;;;;;;5005381;28;20089;-76
2022/06/16 09:05:06;;;;;;;6.18;3.53;;;;;;;;;;4991295;28;20031;-74
2022/06/16 09:07:41;;;;;;;6.38;3.65;;;;;;;;;;4994819;28;20117;-73
2022/06/16 09:10:16;;;;;;;5.70;3.90;;;;;;;;;;5004426;28;20101;-83
2022/06/16 09:12:54;;;;;;;5.72;4.13;;;;;;;;;;5019584;28;20562;-74
2022/06/16 09:15:23;;;;;;;4.47;3.60;;;;;;;;;;5004081;28;20100;-74
2022/06/16 09:17:49;;;;;;;5.55;3.45;;;;;;;;;;4983574;28;20046;-74
2022/06/16 09:20:18;;;;;;;5.80;3.90;;;;;;;;;;5005867;28;20201;-75
2022/06/16 09:22:47;;;;;;;5.15;3.70;;;;;;;;;;5008201;28;20049;-74
2022/06/16 09:25:38;;;;;;;5.88;3.75;;;;;;;;;;4972144;28;20058;-75
2022/06/16 09:28:08;;;;;;;5.13;4.30;;;;;;;;;;4974932;28;20081;-74
2022/06/16 09:30:37;;;;;;;4.97;4.35;;;;;;;;;;4977107;28;20046;-75
2022/06/16 09:33:12;;;;;;;6.47;4.28;;;;;;;;;;5003068;28;20121;-74
2022/06/16 09:35:42;;;;;;;6.10;4.50;;;;;;;;;;4989413;28;20418;-75
2022/06/16 09:38:15;;;;;;;4.90;4.15;;;;;;;;;;5004647;28;20029;-74
2022/06/16 09:40:44;;;;;;;6.78;4.30;;;;;;;;;;5016373;28;20053;-75
2022/06/16 09:43:12;;;;;;;5.63;4.32;;;;;;;;;;5022934;28;20097;-74
2022/06/16 09:45:49;;;;;;;5.90;4.10;;;;;;;;;;5015354;28;20058;-75
2022/06/16 09:48:15;;;;;;;7.00;4.05;;;;;;;;;;5003146;28;20078;-76
2022/06/16 09:50:45;;;;;;;10.05;4.53;;;;;;;;;;5005025;28;20033;-75
2022/06/16 09:53:17;;;;;;;5.72;3.75;;;;;;;;;;4988673;28;20038;-75
2022/06/16 09:55:46;;;;;;;5.47;3.95;;;;;;;;;;5007770;28;20038;-74
2022/06/16 09:58:31;;;;;;;4.60;3.78;;;;;;;;;;4993832;28;20056;-74
2022/06/16 10:01:00;;;;;;;8.95;4.20;;;;;;;;;;5006157;28;20046;-74
2022/06/16 10:03:29;;;;;;;6.38;4.15;;;;;;;;;;4973959;28;20053;-73
2022/06/16 10:06:01;;;;;;;5.93;3.83;;;;;;;;;;5006378;28;20049;-74
2022/06/16 10:08:32;;;;;;;6.95;4.35;;;;;;;;;;5009334;28;20045;-73
2022/06/16 10:11:03;;;;;;;7.43;4.30;;;;;;;;;;4992763;28;20128;-72
2022/06/16 10:13:34;;;;;;;4.30;3.47;;;;;;;;;;5025314;28;20042;-72
2022/06/16 10:16:03;;;;;;;7.13;3.58;;;;;;;;;;5018451;28;20077;-72
2022/06/16 10:18:29;;;;;;;4.95;3.80;;;;;;;;;;4996093;28;20045;-73
2022/06/16 10:20:55;;;;;;;4.75;3.60;;;;;;;;;;5009015;28;20069;-73
2022/06/16 10:23:35;;;;;;;6.32;3.70;;;;;;;;;;5008876;28;20069;-85
2022/06/16 10:26:05;;;;;;;5.60;3.75;;;;;;;;;;5014221;28;20050;-78
2022/06/16 10:28:35;;;;;;;5.35;3.30;;;;;;;;;;4996298;28;20037;-74
2022/06/16 10:31:02;;;;;;;4.68;3.55;;;;;;;;;;4981092;28;20057;-75
2022/06/16 10:33:33;;;;;;;7.47;3.80;;;;;;;;;;5015934;28;20112;-75
2022/06/16 10:36:07;;;;;;;6.07;3.40;;;;;;;;;;5004059;28;20046;-74
2022/06/16 10:38:39;;;;;;;4.53;3.72;;;;;;;;;;4989411;28;20128;-74
2022/06/16 10:41:23;;;;;;;4.75;3.42;;;;;;;;;;5012412;28;20117;-74
2022/06/16 10:43:53;;;;;;;5.25;3.35;;;;;;;;;;4997461;28;20061;-75
2022/06/16 10:46:23;;;;;;;3.67;3.28;;;;;;;;;;5003649;28;20164;-75
2022/06/16 10:48:54;;;;;;;4.13;3.30;;;;;;;;;;4990392;28;20056;-75
2022/06/16 10:51:22;;;;;;;5.72;3.65;;;;;;;;;;4990230;28;20153;-75
2022/06/16 10:54:00;;;;;;;5.18;3.22;;;;;;;;;;4974059;28;20058;-75
2022/06/16 10:56:27;;;;;;;4.88;3.30;;;;;;;;;;4963226;28;20052;-75
2022/06/16 10:59:08;;;;;;;5.80;3.20;;;;;;;;;;4979169;28;20125;-74
2022/06/16 11:01:41;;;;;;;5.72;3.67;;;;;;;;;;4996170;28;20088;-75
2022/06/16 11:04:09;;;;;;;4.35;3.53;;;;;;;;;;4996075;28;20408;-75
2022/06/16 11:06:38;;;;;;;4.57;3.80;;;;;;;;;;4979383;28;20145;-75
2022/06/16 11:09:05;;;;;;;4.55;3.22;;;;;;;;;;5002763;28;20590;-75
2022/06/16 11:11:39;;;;;;;5.75;3.70;;;;;;;;;;4979381;28;20050;-74
2022/06/16 11:14:07;;;;;;;5.90;3.10;;;;;;;;;;5000780;28;20058;-75
2022/06/16 11:16:38;;;;;;;7.28;3.40;;;;;;;;;;4983817;28;20626;-75
2022/06/16 11:19:09;;;;;;;4.05;2.90;;;;;;;;;;4988153;28;20423;-74
2022/06/16 11:21:35;;;;;;;5.68;3.10;;;;;;;;;;4995002;28;20500;-75
2022/06/16 11:24:05;;;;;;;4.38;3.13;;;;;;;;;;4995560;28;20042;-75
2022/06/16 11:26:36;;;;;;;4.38;3.38;;;;;;;;;;5002679;28;20056;-75
2022/06/16 11:29:11;;;;;;;5.00;3.20;;;;;;;;;;4995692;28;20133;-75
2022/06/16 11:31:40;;;;;;;5.15;3.40;;;;;;;;;;4981051;28;20415;-74
2022/06/16 11:34:09;;;;;;;4.10;3.10;;;;;;;;;;4977525;28;20133;-75
2022/06/16 11:36:41;;;;;;;4.72;3.20;;;;;;;;;;4977473;28;20042;-75
2022/06/16 11:39:25;;;;;;;4.55;3.08;;;;;;;;;;4994940;28;20046;-74
2022/06/16 11:41:53;;;;;;;4.85;3.10;;;;;;;;;;4997305;28;20411;-74
2022/06/16 11:44:27;;;;;;;3.38;2.83;;;;;;;;;;4983799;28;20404;-74
2022/06/16 11:47:10;;;;;;;4.53;3.38;;;;;;;;;;4994379;28;20054;-74
2022/06/16 11:49:36;;;;;;;5.20;3.17;;;;;;;;;;5009549;28;20617;-74
2022/06/16 11:52:02;;;;;;;4.55;3.30;;;;;;;;;;4992132;28;20549;-74
2022/06/16 11:54:37;;;;;;;4.63;3.05;;;;;;;;;;5007789;28;20037;-74
2022/06/16 11:57:10;;;;;;;4.53;2.90;;;;;;;;;;5012885;28;20495;-75
2022/06/16 11:59:36;;;;;;;5.85;3.13;;;;;;;;;;4989048;28;20404;-75
2022/06/16 12:02:23;;;;;;;5.28;3.28;;;;;;;;;;5005411;28;20511;-74
2022/06/16 12:04:57;;;;;;;7.25;3.55;;;;;;;;;;4938820;28;20050;-75
2022/06/16 12:07:50;;;;;;;5.32;3.25;;;;;;;;;;5003555;28;20070;-75
2022/06/16 12:10:25;;;;;;;5.95;3.45;;;;;;;;;;4998259;28;20042;-74
2022/06/16 12:13:11;;;;;;;5.18;3.08;;;;;;;;;;4977234;28;20046;-75
2022/06/16 12:15:48;;;;;;;4.70;3.33;;;;;;;;;;4998859;28;20613;-74
2022/06/16 12:18:14;;;;;;;6.28;3.17;;;;;;;;;;5005941;28;20402;-74
2022/06/16 12:20:53;;;;;;;4.25;2.92;;;;;;;;;;5011548;28;20046;-74
2022/06/16 12:23:21;;;;;;;5.32;3.28;;;;;;;;;;4990318;28;20376;-75
2022/06/16 12:25:47;;;;;;;4.07;2.80;;;;;;;;;;4996286;28;20066;-75
2022/06/16 12:28:29;;;;;;;4.80;2.90;;;;;;;;;;4994710;28;20093;-75
2022/06/16 12:31:06;;;;;;;4.28;2.90;;;;;;;;;;4995363;28;20050;-75
2022/06/16 12:33:52;;;;;;;6.18;3.05;;;;;;;;;;4994850;28;20080;-75
2022/06/16 12:36:30;;;;;;;4.35;3.03;;;;;;;;;;4984868;28;20526;-75
2022/06/16 12:39:01;;;;;;;6.13;3.50;;;;;;;;;;5005481;28;20041;-75
2022/06/16 12:41:32;;;;;;;7.97;3.45;;;;;;;;;;4994063;28;20056;-75
2022/06/16 12:44:10;;;;;;;5.03;3.28;;;;;;;;;;5011868;28;20042;-75
2022/06/16 12:46:45;;;;;;;4.85;3.03;;;;;;;;;;5012355;28;20466;-75
2022/06/16 12:49:11;;;;;;;4.82;2.92;;;;;;;;;;4995846;28;20080;-75
2022/06/16 12:51:59;;;;;;;6.20;3.35;;;;;;;;;;5013810;28;20420;-75
2022/06/16 12:54:28;;;;;;;5.38;3.22;;;;;;;;;;4987383;28;20505;-75
2022/06/16 12:57:02;;;;;;;7.32;3.50;;;;;;;;;;4975855;28;20050;-75
2022/06/16 12:59:51;;;;;;;5.70;3.08;;;;;;;;;;4995801;28;20054;-74
2022/06/16 13:02:21;;;;;;;6.55;3.80;;;;;;;;;;4996118;28;20051;-74
2022/06/16 13:04:47;;;;;;;8.10;3.55;;;;;;;;;;4987337;28;20053;-76
2022/06/16 13:07:16;;;;;;;7.00;3.53;;;;;;;;;;4987435;28;20062;-75
2022/06/16 13:09:42;;;;;;;4.30;3.58;;;;;;;;;;4986932;28;20042;-80
2022/06/16 13:12:18;;;;;;;5.68;3.58;;;;;;;;;;4995407;28;20110;-74
2022/06/16 13:14:57;;;;;;;5.75;3.72;;;;;;;;;;4968091;28;20494;-75
2022/06/16 13:17:36;;;;;;;5.22;3.60;;;;;;;;;;5012235;28;20046;-75
2022/06/16 13:20:07;;;;;;;6.20;3.92;;;;;;;;;;4994742;28;20429;-75
2022/06/16 13:22:41;;;;;;;6.03;4.22;;;;;;;;;;4998121;28;20495;-75
2022/06/16 13:25:12;;;;;;;5.97;4.35;;;;;;;;;;5014035;28;20069;-75
2022/06/16 13:27:38;;;;;;;6.68;4.13;;;;;;;;;;5019794;28;20050;-75
2022/06/16 13:30:09;;;;;;;8.18;4.90;;;;;;;;;;5008405;28;20152;-79
2022/06/16 13:32:40;;;;;;;5.43;4.50;;;;;;;;;;4999524;28;20500;-74
2022/06/16 13:35:12;;;;;;;6.03;4.88;;;;;;;;;;5002616;28;20044;-76
2022/06/16 13:37:39;;;;;;;8.57;4.80;;;;;;;;;;5006259;28;20065;-75
2022/06/16 13:40:05;;;;;;;5.70;4.20;;;;;;;;;;5018002;28;20049;-75
2022/06/16 13:43:03;;;;;;;7.25;3.85;;;;;;;;;;5001376;28;20095;-75
2022/06/16 13:45:29;;;;;;;6.00;4.38;;;;;;;;;;4964493;28;20084;-76
2022/06/16 13:48:04;;;;;;;6.47;4.35;;;;;;;;;;5023724;28;20114;-76
2022/06/16 13:50:46;;;;;;;7.85;4.57;;;;;;;;;;5000227;28;20042;-80
2022/06/16 13:53:13;;;;;;;5.93;4.40;;;;;;;;;;5017561;28;20046;-74
2022/06/16 13:55:44;;;;;;;5.82;4.20;;;;;;;;;;5014493;28;20042;-75
2022/06/16 13:58:10;;;;;;;5.85;4.70;;;;;;;;;;5019361;28;20042;-78
2022/06/16 14:00:37;;;;;;;6.93;4.53;;;;;;;;;;5011307;28;20050;-74
2022/06/16 14:03:04;;;;;;;5.15;4.55;;;;;;;;;;5008900;28;20109;-74
2022/06/16 14:05:32;;;;;;;7.70;5.30;;;;;;;;;;5007254;28;20080;-74
2022/06/16 14:08:14;;;;;;;6.93;5.00;;;;;;;;;;5000862;28;20534;-75
2022/06/16 14:10:48;;;;;;;7.18;5.28;;;;;;;;;;4984847;28;20058;-75
2022/06/16 14:13:14;;;;;;;6.82;5.47;;;;;;;;;;5018187;28;20045;-75
2022/06/16 14:15:52;;;;;;;6.68;5.00;;;;;;;;;;5017750;28;20502;-74
2022/06/16 14:18:48;;;;;;;6.80;5.15;;;;;;;;;;5009213;28;20042;-74
2022/06/16 14:21:15;;;;;;;6.07;4.68;;;;;;;;;;5016481;28;20046;-74
2022/06/16 14:23:41;;;;;;;5.97;4.70;;;;;;;;;;5007634;28;20047;-74
2022/06/16 14:26:09;;;;;;;7.65;4.78;;;;;;;;;;4990899;28;20055;-74
2022/06/16 14:28:37;;;;;;;5.40;4.85;;;;;;;;;;5008173;28;20051;-75
2022/06/16 14:31:06;;;;;;;6.63;4.40;;;;;;;;;;5008237;28;20042;-74
2022/06/16 14:34:04;;;;;;;4.88;4.18;;;;;;;;;;5019384;28;20111;-74
2022/06/16 14:36:33;;;;;;;6.47;4.90;;;;;;;;;;4958002;28;20053;-74
2022/06/16 14:39:03;;;;;;;5.88;4.70;;;;;;;;;;5027675;28;20053;-74
2022/06/16 14:41:37;;;;;;;6.18;5.20;;;;;;;;;;5009729;28;20057;-73
2022/06/16 14:44:18;;;;;;;4.93;4.20;;;;;;;;;;4981435;28;20049;-74
2022/06/16 14:46:54;;;;;;;6.57;5.10;;;;;;;;;;4982965;28;20058;-82
2022/06/16 14:49:27;;;;;;;6.07;4.25;;;;;;;;;;4991717;28;20046;-75
2022/06/16 14:51:54;;;;;;;7.63;4.80;;;;;;;;;;5001641;28;20431;-75
2022/06/16 14:54:27;;;;;;;5.18;3.83;;;;;;;;;;5014378;28;20043;-74
2022/06/16 14:56:54;;;;;;;5.93;4.15;;;;;;;;;;5014606;28;20070;-74
2022/06/16 14:59:22;;;;;;;6.47;4.30;;;;;;;;;;4999508;28;20049;-74
2022/06/16 15:01:49;;;;;;;6.85;4.40;;;;;;;;;;5011975;28;20062;-74
2022/06/16 15:04:18;;;;;;;7.43;4.95;;;;;;;;;;5014803;28;20097;-74
2022/06/16 15:06:46;;;;;;;5.45;4.60;;;;;;;;;;5023209;28;20057;-73
2022/06/16 15:09:14;;;;;;;7.07;4.70;;;;;;;;;;5019044;28;20037;-73
2022/06/16 15:11:42;;;;;;;5.35;4.32;;;;;;;;;;5026696;28;20053;-75
2022/06/16 15:14:10;;;;;;;5.35;4.18;;;;;;;;;;5027890;28;20419;-74
2022/06/16 15:19:25;;;;;;;6.60;4.85;;;;;;;;;;4998290;28;20054;-74